createdAt,value
2024-02-06T00:00:17.625Z,62.14
2024-02-06T00:02:48.315Z,63.64
2024-02-06T00:05:19.297Z,63.56
2024-02-06T00:07:50.070Z,64.26
2024-02-06T00:10:22.633Z,69.40
2024-02-06T00:12:54.423Z,71.33
2024-02-06T00:15:24.925Z,68.93
2024-02-06T00:17:55.573Z,74.64
2024-02-06T00:20:26.415Z,76.05
2024-02-06T00:22:57.083Z,75.79
2024-02-06T00:25:27.855Z,79.36
2024-02-06T00:27:58.532Z,78.76
2024-02-06T00:30:29.112Z,80.73
2024-02-06T00:32:59.938Z,81.43
2024-02-06T00:35:32.158Z,81.86
2024-02-06T00:38:02.990Z,82.47
2024-02-06T00:40:33.714Z,82.47
2024-02-06T00:43:04.932Z,82.89
2024-02-06T00:45:35.800Z,82.53
2024-02-06T00:48:06.864Z,81.93
2024-02-06T00:50:39.245Z,81.71
2024-02-06T00:53:10.189Z,81.76
2024-02-06T00:55:41.265Z,82.38
2024-02-06T00:58:11.960Z,80.91
2024-02-06T01:00:43.771Z,81.46
2024-02-06T01:03:14.575Z,81.94
2024-02-06T01:05:45.226Z,81.64
2024-02-06T01:08:16.288Z,80.93
2024-02-06T01:10:47.097Z,80.96
2024-02-06T01:13:18.063Z,78.57
2024-02-06T01:15:49.185Z,79.06
2024-02-06T01:18:19.915Z,81.18
2024-02-06T01:20:50.581Z,80.99
2024-02-06T01:23:20.999Z,81.36
2024-02-06T01:25:51.917Z,81.53
2024-02-06T01:28:22.622Z,80.43
2024-02-06T01:30:53.339Z,80.02
2024-02-06T01:33:24.208Z,81.05
2024-02-06T01:35:55.266Z,78.37
2024-02-06T01:38:26.239Z,80.84
2024-02-06T01:40:57.124Z,81.04
2024-02-06T01:43:27.868Z,81.00
2024-02-06T01:45:58.730Z,80.30
2024-02-06T01:48:30.304Z,80.91
2024-02-06T01:51:01.310Z,81.89
2024-02-06T01:53:33.560Z,78.83
2024-02-06T01:56:05.388Z,79.45
2024-02-06T01:58:37.129Z,81.23
2024-02-06T02:01:09.631Z,81.11
2024-02-06T02:03:40.392Z,81.80
2024-02-06T02:06:11.239Z,78.90
2024-02-06T02:08:42.495Z,77.68
2024-02-06T02:11:13.361Z,81.13
2024-02-06T02:13:44.466Z,80.55
2024-02-06T02:16:18.073Z,79.12
2024-02-06T02:18:48.839Z,80.71
2024-02-06T02:21:19.486Z,80.46
2024-02-06T02:23:51.408Z,78.59
2024-02-06T02:26:23.506Z,80.22
2024-02-06T02:28:55.734Z,79.44
2024-02-06T02:31:27.899Z,80.90
2024-02-06T02:33:58.578Z,79.43
2024-02-06T02:36:29.339Z,79.91
2024-02-06T02:39:00.070Z,78.89
2024-02-06T02:41:31.057Z,79.54
2024-02-06T02:44:01.738Z,79.41
2024-02-06T02:46:32.459Z,79.80
2024-02-06T02:49:03.344Z,79.15
2024-02-06T02:51:35.195Z,79.57
2024-02-06T02:54:05.844Z,78.69
2024-02-06T02:56:36.363Z,79.48
2024-02-06T02:59:07.463Z,79.80
2024-02-06T03:01:38.699Z,79.64
2024-02-06T03:04:09.537Z,78.82
2024-02-06T03:06:40.462Z,79.75
2024-02-06T03:09:11.136Z,79.71
2024-02-06T03:11:42.087Z,78.82
2024-02-06T03:14:13.454Z,81.37
2024-02-06T03:16:44.264Z,81.74
2024-02-06T03:19:15.148Z,81.88
2024-02-06T03:21:46.172Z,81.78
2024-02-06T03:24:17.040Z,82.32
2024-02-06T03:26:48.072Z,81.91
2024-02-06T03:29:19.256Z,82.26
2024-02-06T03:31:50.954Z,81.83
2024-02-06T03:34:23.398Z,81.62
2024-02-06T03:36:55.692Z,82.64
2024-02-06T03:39:27.262Z,81.66
2024-02-06T03:41:58.215Z,81.47
2024-02-06T03:44:29.498Z,81.64
2024-02-06T03:47:00.331Z,81.51
2024-02-06T03:49:31.046Z,81.65
2024-02-06T03:52:01.937Z,81.46
2024-02-06T03:54:32.871Z,81.67
2024-02-06T03:57:03.702Z,81.76
2024-02-06T03:59:34.144Z,81.21
2024-02-06T04:02:06.242Z,82.32
2024-02-06T04:04:37.133Z,80.72
2024-02-06T04:07:08.424Z,82.75
2024-02-06T04:09:39.154Z,82.40
2024-02-06T04:12:10.094Z,80.15
2024-02-06T04:14:42.750Z,80.06
2024-02-06T04:17:13.763Z,79.96
2024-02-06T04:19:44.729Z,80.40
2024-02-06T04:22:15.476Z,80.13
2024-02-06T04:24:46.055Z,77.67
2024-02-06T04:27:16.819Z,77.45
2024-02-06T04:29:47.318Z,76.93
2024-02-06T04:32:18.341Z,76.61
2024-02-06T04:34:49.330Z,76.76
2024-02-06T04:37:21.644Z,76.74
2024-02-06T04:39:52.398Z,76.53
2024-02-06T04:42:22.931Z,76.32
2024-02-06T04:44:53.626Z,76.19
2024-02-06T04:47:24.335Z,76.09
2024-02-06T04:49:55.084Z,76.36
2024-02-06T04:52:26.269Z,76.26
2024-02-06T04:54:57.026Z,76.11
2024-02-06T04:57:27.992Z,76.08
2024-02-06T05:00:00.316Z,75.83
2024-02-06T05:02:32.497Z,75.69
2024-02-06T05:05:03.306Z,75.98
2024-02-06T05:07:34.932Z,75.38
2024-02-06T05:10:05.973Z,76.07
2024-02-06T05:12:37.032Z,75.49
2024-02-06T05:15:08.125Z,72.84
2024-02-06T05:17:39.226Z,70.87
2024-02-06T05:20:12.078Z,69.34
2024-02-06T05:22:43.123Z,68.00
2024-02-06T05:25:14.397Z,66.89
2024-02-06T05:27:45.272Z,65.80
2024-02-06T05:30:16.502Z,65.73
2024-02-06T05:32:47.240Z,66.61
2024-02-06T05:35:18.055Z,65.43
2024-02-06T05:37:49.342Z,64.21
2024-02-06T05:40:20.241Z,64.55
2024-02-06T05:42:51.143Z,62.31
2024-02-06T05:45:21.884Z,61.53
2024-02-06T05:47:53.332Z,60.63
2024-02-06T05:50:25.400Z,60.25
2024-02-06T05:52:56.805Z,60.08
2024-02-06T05:55:31.241Z,60.35
2024-02-06T05:58:02.141Z,59.75
2024-02-06T06:00:33.850Z,59.28
2024-02-06T06:03:05.253Z,58.76
2024-02-06T06:05:36.268Z,59.96
2024-02-06T06:08:07.549Z,57.49
2024-02-06T06:10:38.422Z,57.93
2024-02-06T06:13:09.438Z,59.40
2024-02-06T06:15:41.674Z,56.91
2024-02-06T06:18:13.743Z,56.72
2024-02-06T06:20:44.825Z,57.00
2024-02-06T06:23:16.088Z,56.36
2024-02-06T06:25:47.067Z,56.36
2024-02-06T06:28:17.842Z,56.18
2024-02-06T06:30:48.807Z,55.64
2024-02-06T06:33:20.840Z,55.43
2024-02-06T06:35:51.741Z,55.98
2024-02-06T06:38:22.390Z,55.16
2024-02-06T06:40:53.107Z,54.71
2024-02-06T06:43:24.965Z,55.19
2024-02-06T06:45:56.773Z,55.05
2024-02-06T06:48:27.483Z,55.21
2024-02-06T06:50:58.297Z,55.50
2024-02-06T06:53:29.244Z,54.08
2024-02-06T06:55:59.972Z,54.84
2024-02-06T06:58:31.345Z,53.83
2024-02-06T07:01:02.811Z,54.08
2024-02-06T07:03:34.623Z,54.05
2024-02-06T07:06:06.508Z,54.87
2024-02-06T07:08:37.898Z,55.99
2024-02-06T07:11:09.272Z,54.76
2024-02-06T07:13:42.070Z,54.70
2024-02-06T07:16:12.837Z,53.86
2024-02-06T07:18:43.376Z,53.87
2024-02-06T07:21:14.177Z,53.09
2024-02-06T07:23:44.986Z,52.49
2024-02-06T07:26:15.589Z,52.74
2024-02-06T07:28:46.237Z,53.46
2024-02-06T07:31:17.205Z,54.10
2024-02-06T07:33:48.104Z,53.31
2024-02-06T07:36:19.030Z,53.40
2024-02-06T07:38:49.621Z,53.09
2024-02-06T07:41:20.093Z,53.16
2024-02-06T07:43:51.183Z,52.67
2024-02-06T07:46:22.023Z,52.62
2024-02-06T07:48:56.570Z,53.83
2024-02-06T07:51:27.960Z,52.49
2024-02-06T07:54:01.696Z,52.54
2024-02-06T07:56:33.883Z,52.81
2024-02-06T07:59:04.673Z,51.98
2024-02-06T08:01:36.105Z,51.88
2024-02-06T08:04:09.495Z,52.10
2024-02-06T08:06:40.285Z,51.77
2024-02-06T08:09:11.159Z,52.16
2024-02-06T08:11:41.889Z,52.10
2024-02-06T08:14:16.705Z,52.08
2024-02-06T08:16:49.335Z,52.44
2024-02-06T08:19:20.484Z,52.09
2024-02-06T08:21:51.662Z,51.92
2024-02-06T08:24:22.398Z,52.17
2024-02-06T08:26:52.840Z,51.84
2024-02-06T08:29:23.758Z,51.58
2024-02-06T08:31:54.287Z,52.01
2024-02-06T08:34:25.037Z,52.39
2024-02-06T08:36:55.787Z,52.44
2024-02-06T08:39:29.383Z,52.02
2024-02-06T08:42:00.218Z,52.06
2024-02-06T08:44:32.763Z,52.53
2024-02-06T08:47:04.026Z,52.43
2024-02-06T08:49:35.703Z,55.09
2024-02-06T08:52:06.449Z,63.06
2024-02-06T08:54:37.233Z,66.92
2024-02-06T08:57:08.157Z,67.11
2024-02-06T08:59:39.030Z,69.15
2024-02-06T09:02:10.815Z,68.36
2024-02-06T09:04:42.270Z,68.20
2024-02-06T09:07:13.230Z,68.28
2024-02-06T09:09:43.935Z,67.45
2024-02-06T09:12:15.117Z,67.83
2024-02-06T09:14:45.874Z,67.48
2024-02-06T09:17:16.696Z,67.52
2024-02-06T09:19:47.502Z,67.27
2024-02-06T09:22:18.428Z,67.37
2024-02-06T09:24:49.359Z,67.83
2024-02-06T09:27:23.119Z,66.00
2024-02-06T09:29:54.103Z,67.84
2024-02-06T09:32:24.762Z,66.95
2024-02-06T09:34:58.227Z,66.53
2024-02-06T09:37:32.282Z,68.13
2024-02-06T09:40:02.683Z,68.58
2024-02-06T09:42:33.876Z,66.16
2024-02-06T09:45:04.782Z,65.97
2024-02-06T09:47:35.400Z,65.48
2024-02-06T09:50:06.708Z,67.24
2024-02-06T09:52:38.963Z,66.42
2024-02-06T09:55:16.704Z,66.12
2024-02-06T09:57:50.467Z,65.27
2024-02-06T10:00:25.145Z,64.96
2024-02-06T10:03:01.561Z,64.83
2024-02-06T10:05:36.500Z,64.15
2024-02-06T10:08:08.072Z,63.77
2024-02-06T10:10:39.129Z,63.84
2024-02-06T10:13:10.173Z,63.21
2024-02-06T10:15:41.120Z,63.06
2024-02-06T10:18:11.725Z,62.95
2024-02-06T10:20:50.106Z,63.17
2024-02-06T10:23:22.056Z,62.79
2024-02-06T10:25:53.010Z,63.11
2024-02-06T10:28:26.906Z,63.17
2024-02-06T10:30:59.162Z,63.24
2024-02-06T10:33:31.416Z,63.55
2024-02-06T10:36:05.896Z,63.42
2024-02-06T10:38:36.527Z,63.24
2024-02-06T10:41:20.224Z,63.15
2024-02-06T10:43:55.898Z,63.40
2024-02-06T10:46:26.744Z,63.35
2024-02-06T10:49:06.816Z,63.96
2024-02-06T10:51:37.808Z,63.78
2024-02-06T10:54:08.582Z,63.88
2024-02-06T10:56:41.837Z,64.00
2024-02-06T10:59:18.316Z,64.32
2024-02-06T11:01:49.865Z,64.17
2024-02-06T11:04:25.717Z,65.23
2024-02-06T11:07:07.859Z,64.54
2024-02-06T11:09:42.728Z,64.59
2024-02-06T11:12:26.688Z,64.14
2024-02-06T11:15:10.746Z,64.50
2024-02-06T11:17:43.786Z,64.39
2024-02-06T11:20:16.917Z,64.65
2024-02-06T11:22:54.233Z,64.61
2024-02-06T11:25:30.000Z,65.05
2024-02-06T11:28:05.574Z,64.64
2024-02-06T11:30:37.224Z,65.00
2024-02-06T11:33:11.713Z,65.21
2024-02-06T11:35:45.845Z,65.10
2024-02-06T11:38:29.318Z,66.02
2024-02-06T11:41:19.648Z,66.21
2024-02-06T11:43:53.432Z,65.00
2024-02-06T11:46:25.453Z,65.67
2024-02-06T11:49:07.063Z,65.77
2024-02-06T11:51:38.946Z,65.72
2024-02-06T11:54:14.297Z,66.61
2024-02-06T11:56:45.086Z,66.14
2024-02-06T11:59:16.895Z,65.92
2024-02-06T12:01:47.695Z,66.45
2024-02-06T12:04:26.010Z,67.60
2024-02-06T12:07:09.604Z,67.74
2024-02-06T12:09:44.285Z,66.52
2024-02-06T12:12:17.476Z,69.81
2024-02-06T12:14:48.638Z,69.83
2024-02-06T12:17:19.550Z,71.09
2024-02-06T12:19:52.174Z,71.48
2024-02-06T12:22:23.533Z,71.40
2024-02-06T12:25:02.374Z,71.89
2024-02-06T12:27:33.677Z,72.13
2024-02-06T12:30:04.593Z,72.44
2024-02-06T12:32:35.747Z,71.92
2024-02-06T12:35:07.894Z,72.27
2024-02-06T12:37:38.740Z,72.61
2024-02-06T12:40:10.015Z,72.96
2024-02-06T12:42:40.712Z,72.41
2024-02-06T12:45:11.925Z,72.94
2024-02-06T12:47:43.770Z,73.28
2024-02-06T12:50:14.416Z,73.57
2024-02-06T12:52:45.675Z,73.38
2024-02-06T12:55:16.761Z,72.71
2024-02-06T12:57:55.473Z,72.97
2024-02-06T13:00:27.212Z,72.67
2024-02-06T13:03:09.715Z,73.06
2024-02-06T13:05:40.542Z,71.78
2024-02-06T13:08:15.165Z,72.76
2024-02-06T13:10:46.847Z,73.16
2024-02-06T13:13:22.474Z,70.97
2024-02-06T13:15:53.682Z,68.64
2024-02-06T13:18:24.531Z,65.94
2024-02-06T13:21:05.955Z,65.89
2024-02-06T13:23:38.706Z,66.52
2024-02-06T13:26:09.624Z,66.23
2024-02-06T13:28:40.378Z,65.21
2024-02-06T13:31:16.490Z,64.33
2024-02-06T13:33:49.409Z,63.38
2024-02-06T13:36:20.591Z,62.83
2024-02-06T13:38:52.026Z,61.99
2024-02-06T13:41:22.878Z,61.54
2024-02-06T13:43:55.901Z,62.15
2024-02-06T13:46:26.762Z,61.49
2024-02-06T13:48:57.440Z,60.95
2024-02-06T13:51:28.376Z,59.93
2024-02-06T13:53:59.046Z,59.24
2024-02-06T13:56:29.741Z,58.64
2024-02-06T13:59:00.230Z,58.16
2024-02-06T14:01:31.325Z,56.95
2024-02-06T14:04:06.702Z,57.44
2024-02-06T14:06:37.648Z,56.47
2024-02-06T14:09:10.145Z,57.87
2024-02-06T14:11:43.524Z,55.79
2024-02-06T14:14:14.450Z,55.76
2024-02-06T14:16:45.240Z,55.81
2024-02-06T14:19:16.102Z,54.79
2024-02-06T14:21:48.679Z,55.47
2024-02-06T14:24:19.323Z,55.19
2024-02-06T14:26:49.883Z,54.85
2024-02-06T14:29:20.531Z,54.37
2024-02-06T14:31:51.404Z,55.01
2024-02-06T14:34:22.295Z,55.42
2024-02-06T14:36:53.779Z,55.74
2024-02-06T14:39:24.485Z,55.34
2024-02-06T14:41:55.516Z,54.84
2024-02-06T14:44:36.765Z,55.29
2024-02-06T14:47:15.563Z,55.37
2024-02-06T14:49:46.322Z,54.80
2024-02-06T14:52:17.434Z,55.45
2024-02-06T14:54:48.253Z,54.95
2024-02-06T14:57:19.213Z,55.18
2024-02-06T14:59:50.306Z,56.43
2024-02-06T15:02:21.116Z,60.26
2024-02-06T15:04:52.304Z,59.59
2024-02-06T15:07:23.875Z,60.58
2024-02-06T15:09:57.600Z,60.59
2024-02-06T15:12:28.980Z,60.25
2024-02-06T15:15:00.130Z,59.94
2024-02-06T15:17:31.346Z,58.98
2024-02-06T15:20:02.343Z,58.64
2024-02-06T15:22:33.305Z,57.92
2024-02-06T15:25:04.254Z,58.15
2024-02-06T15:27:35.173Z,57.85
2024-02-06T15:30:06.207Z,57.68
2024-02-06T15:32:37.085Z,56.59
2024-02-06T15:35:08.369Z,56.59
2024-02-06T15:37:39.351Z,56.75
2024-02-06T15:40:11.120Z,56.05
2024-02-06T15:42:42.063Z,56.72
2024-02-06T15:45:12.896Z,56.46
2024-02-06T15:47:44.844Z,56.92
2024-02-06T15:50:17.173Z,56.36
2024-02-06T15:52:48.587Z,56.27
2024-02-06T15:55:25.335Z,56.40
2024-02-06T15:57:56.269Z,57.32
2024-02-06T16:00:26.874Z,57.10
2024-02-06T16:02:59.635Z,56.84
2024-02-06T16:05:30.557Z,56.17
2024-02-06T16:08:01.522Z,57.11
2024-02-06T16:10:32.894Z,56.65
2024-02-06T16:13:04.428Z,56.08
2024-02-06T16:15:35.207Z,55.52
2024-02-06T16:18:06.372Z,54.63
2024-02-06T16:20:37.101Z,55.16
2024-02-06T16:23:09.264Z,55.93
2024-02-06T16:25:40.140Z,55.93
2024-02-06T16:28:10.876Z,55.91
2024-02-06T16:30:41.616Z,56.00
2024-02-06T16:33:12.415Z,55.78
2024-02-06T16:35:43.334Z,55.41
2024-02-06T16:38:14.324Z,55.75
2024-02-06T16:40:45.257Z,56.21
2024-02-06T16:43:15.953Z,55.81
2024-02-06T16:45:47.944Z,55.68
2024-02-06T16:48:19.710Z,55.85
2024-02-06T16:50:50.641Z,55.65
2024-02-06T16:53:21.171Z,53.86
2024-02-06T16:55:51.742Z,55.13
2024-02-06T16:58:22.703Z,54.90
2024-02-06T17:00:53.058Z,55.43
2024-02-06T17:03:23.850Z,54.92
2024-02-06T17:05:54.454Z,56.09
2024-02-06T17:08:25.242Z,54.82
2024-02-06T17:10:56.078Z,55.45
2024-02-06T17:13:27.551Z,54.76
2024-02-06T17:15:58.244Z,55.99
2024-02-06T17:18:31.510Z,55.71
2024-02-06T17:21:02.429Z,55.41
2024-02-06T17:23:33.423Z,55.23
2024-02-06T17:26:04.801Z,55.89
2024-02-06T17:28:35.704Z,55.05
2024-02-06T17:31:06.151Z,54.84
2024-02-06T17:33:36.960Z,55.35
2024-02-06T17:36:08.055Z,54.36
2024-02-06T17:38:40.336Z,54.46
2024-02-06T17:41:13.604Z,54.01
2024-02-06T17:43:44.551Z,54.56
2024-02-06T17:46:15.372Z,54.69
2024-02-06T17:48:46.167Z,54.46
2024-02-06T17:51:16.824Z,53.26
2024-02-06T17:53:47.503Z,52.46
2024-02-06T17:56:18.572Z,54.25
2024-02-06T17:58:49.626Z,53.31
2024-02-06T18:01:20.373Z,53.35
2024-02-06T18:03:51.174Z,52.56
2024-02-06T18:06:21.887Z,54.30
2024-02-06T18:08:53.222Z,54.73
2024-02-06T18:11:23.735Z,54.55
2024-02-06T18:13:54.736Z,52.83
2024-02-06T18:16:25.573Z,54.36
2024-02-06T18:18:56.070Z,53.73
2024-02-06T18:21:35.697Z,53.44
2024-02-06T18:24:06.677Z,54.32
2024-02-06T18:26:40.177Z,52.77
2024-02-06T18:29:11.217Z,53.78
2024-02-06T18:31:41.979Z,53.19
2024-02-06T18:34:12.936Z,51.70
2024-02-06T18:36:43.721Z,52.41
2024-02-06T18:39:14.401Z,52.53
2024-02-06T18:41:45.303Z,53.79
2024-02-06T18:44:16.448Z,54.21
2024-02-06T18:46:47.465Z,52.82
2024-02-06T18:49:18.921Z,53.06
2024-02-06T18:51:49.853Z,52.82
2024-02-06T18:54:20.786Z,52.89
2024-02-06T18:56:51.413Z,53.02
2024-02-06T18:59:22.439Z,53.42
2024-02-06T19:01:53.273Z,52.81
2024-02-06T19:04:24.315Z,53.79
2024-02-06T19:06:59.464Z,52.34
2024-02-06T19:09:30.230Z,52.96
2024-02-06T19:12:01.281Z,52.79
2024-02-06T19:14:34.498Z,53.42
2024-02-06T19:17:04.655Z,52.08
2024-02-06T19:19:35.198Z,53.00
2024-02-06T19:22:06.150Z,53.39
2024-02-06T19:24:36.833Z,53.66
2024-02-06T19:27:08.122Z,53.56
2024-02-06T19:29:38.875Z,53.18
2024-02-06T19:32:09.806Z,53.58
2024-02-06T19:34:40.526Z,53.07
2024-02-06T19:37:11.770Z,53.21
2024-02-06T19:39:42.528Z,52.74
2024-02-06T19:42:13.152Z,52.91
2024-02-06T19:44:44.039Z,52.49
2024-02-06T19:47:14.805Z,53.30
2024-02-06T19:49:45.662Z,52.44
2024-02-06T19:52:18.164Z,53.08
2024-02-06T19:54:48.931Z,52.38
2024-02-06T19:57:19.870Z,52.44
2024-02-06T19:59:51.359Z,51.95
2024-02-06T20:02:22.490Z,52.30
2024-02-06T20:04:53.397Z,52.58
2024-02-06T20:07:24.127Z,52.03
2024-02-06T20:09:55.017Z,52.61
2024-02-06T20:12:25.655Z,52.92
2024-02-06T20:14:57.788Z,52.64
2024-02-06T20:17:28.455Z,53.20
2024-02-06T20:19:59.221Z,52.67
2024-02-06T20:22:32.525Z,52.76
2024-02-06T20:25:04.736Z,52.24
2024-02-06T20:27:35.925Z,52.92
2024-02-06T20:30:08.097Z,53.28
2024-02-06T20:32:39.061Z,53.46
2024-02-06T20:35:10.758Z,53.73
2024-02-06T20:37:41.759Z,53.68
2024-02-06T20:40:12.779Z,53.87
2024-02-06T20:42:43.441Z,53.86
2024-02-06T20:45:13.903Z,53.96
2024-02-06T20:47:44.572Z,53.88
2024-02-06T20:50:15.880Z,53.96
2024-02-06T20:52:47.317Z,53.97
2024-02-06T20:55:18.386Z,54.50
2024-02-06T20:57:49.122Z,54.34
2024-02-06T21:00:19.934Z,54.17
2024-02-06T21:02:50.703Z,54.56
2024-02-06T21:05:21.357Z,54.83
2024-02-06T21:07:52.147Z,54.56
2024-02-06T21:10:23.359Z,54.68
2024-02-06T21:12:54.530Z,54.51
2024-02-06T21:15:25.660Z,54.47
2024-02-06T21:17:56.479Z,54.65
2024-02-06T21:20:26.942Z,54.32
2024-02-06T21:22:57.793Z,54.38
2024-02-06T21:25:28.469Z,54.30
2024-02-06T21:27:59.283Z,54.47
2024-02-06T21:30:29.965Z,54.49
2024-02-06T21:33:00.673Z,54.51
2024-02-06T21:35:31.138Z,54.50
2024-02-06T21:38:02.206Z,54.92
2024-02-06T21:40:33.521Z,54.51
2024-02-06T21:43:04.402Z,54.89
2024-02-06T21:45:35.299Z,54.84
2024-02-06T21:48:06.911Z,54.85
2024-02-06T21:50:37.885Z,54.58
2024-02-06T21:53:08.912Z,54.99
2024-02-06T21:55:39.976Z,54.85
2024-02-06T21:58:11.610Z,54.92
2024-02-06T22:00:42.513Z,55.03
2024-02-06T22:03:12.936Z,55.04
2024-02-06T22:05:44.438Z,54.84
2024-02-06T22:08:15.240Z,55.18
2024-02-06T22:10:57.363Z,54.63
2024-02-06T22:13:28.234Z,55.38
2024-02-06T22:15:59.717Z,55.18
2024-02-06T22:18:30.553Z,55.11
2024-02-06T22:21:01.256Z,55.42
2024-02-06T22:23:32.025Z,55.02
2024-02-06T22:26:02.688Z,54.82
2024-02-06T22:28:33.212Z,55.12
2024-02-06T22:31:04.091Z,55.43
2024-02-06T22:33:34.917Z,55.03
2024-02-06T22:36:06.127Z,55.20
2024-02-06T22:38:37.909Z,55.46
2024-02-06T22:41:09.496Z,55.53
2024-02-06T22:43:40.346Z,55.32
2024-02-06T22:46:11.170Z,55.18
2024-02-06T22:48:41.857Z,55.46
2024-02-06T22:51:12.772Z,55.29
2024-02-06T22:53:43.294Z,55.08
2024-02-06T22:56:14.097Z,55.20
2024-02-06T22:58:44.901Z,55.04
2024-02-06T23:01:15.816Z,55.05
2024-02-06T23:03:46.569Z,56.03
2024-02-06T23:06:17.469Z,56.72
2024-02-06T23:08:48.916Z,57.26
2024-02-06T23:11:19.651Z,57.92
2024-02-06T23:13:50.101Z,58.34
2024-02-06T23:16:21.527Z,58.84
2024-02-06T23:18:52.294Z,59.51
2024-02-06T23:21:23.015Z,59.61
2024-02-06T23:23:53.870Z,59.86
2024-02-06T23:26:24.684Z,59.77
2024-02-06T23:28:56.040Z,60.58
2024-02-06T23:31:27.215Z,61.34
2024-02-06T23:33:57.822Z,61.53
2024-02-06T23:36:28.398Z,60.68
2024-02-06T23:39:10.429Z,61.85
2024-02-06T23:41:46.389Z,61.59
2024-02-06T23:44:17.391Z,62.59
2024-02-06T23:46:48.107Z,62.82
2024-02-06T23:49:19.076Z,62.16
2024-02-06T23:51:49.886Z,62.84
2024-02-06T23:54:20.512Z,62.98
2024-02-06T23:56:51.489Z,63.30
2024-02-06T23:59:22.074Z,64.57
